Data for 11/15/2006

Time Sea-Level Adjusted Pressure Absolute Pressure Temperature Relative Humidity Dew Point   
(mb) (inHg) (mb) (inHg) (C) (F) (%) (C) (F)
00:05 1022 30.18 851 25.13 -3.9 24.9 61 -10.5 13.2
00:10 1022 30.18 852 25.16 -4.1 24.6 62 -10.4 13.2
00:15 1022 30.18 851 25.13 -4.3 24.3 62 -10.5 13.1
00:20 1022 30.18 852 25.16 -4.3 24.2 62 -10.5 13
00:25 1022 30.18 852 25.16 -4.3 24.3 62 -10.5 13.2
00:30 1022 30.18 851 25.13 -4.3 24.2 62 -10.6 12.9
00:35 1022 30.18 851 25.13 -4.4 24.1 61 -10.7 12.7
00:40 1022 30.18 851 25.13 -4.5 24 61 -10.9 12.4
00:45 1022 30.18 851 25.13 -4.5 24 61 -11 12.2
00:50 1022 30.18 851 25.13 -4.4 24 61 -10.9 12.4
00:55 1022 30.18 851 25.13 -4.3 24.2 60 -11 12.2
01:00 1022 30.18 851 25.13 -4.1 24.7 59 -10.9 12.3
01:05 1022 30.18 851 25.13 -4.2 24.5 61 -10.5 13.1
01:10 1022 30.18 851 25.13 -4.4 24.1 60 -11 12.2
01:15 1022 30.18 851 25.13 -4.4 24.1 59 -11.2 11.9
01:20 1022 30.18 851 25.13 -4.3 24.2 60 -11 12.1
01:25 1022 30.18 851 25.13 -4.4 24.1 60 -11.1 12
01:30 1021 30.15 851 25.13 -4.6 23.8 59 -11.3 11.6
01:35 1021 30.15 851 25.13 -4.6 23.7 60 -11.3 11.7
01:40 1021 30.15 851 25.13 -4.8 23.3 62 -11.1 11.9
01:45 1021 30.15 850 25.1 -5 23 62 -11.1 12
01:50 1021 30.15 850 25.1 -5.1 22.8 63 -11.2 11.9
01:55 1021 30.15 850 25.1 -5.4 22.3 65 -11 12.2
02:00 1021 30.15 850 25.1 -5.5 22.1 65 -11.1 11.9
02:05 1021 30.15 850 25.1 -5.5 22.2 62 -11.6 11.2
02:10 1021 30.15 850 25.1 -5.1 22.9 60 -11.7 10.9
02:15 1021 30.15 850 25.1 -4.8 23.3 59 -11.7 11
02:20 1021 30.15 850 25.1 -4.9 23.2 58 -12 10.5
02:25 1021 30.15 850 25.1 -4.7 23.6 57 -12 10.4
02:30 1021 30.15 850 25.1 -4.5 24 55 -12.2 10
02:35 1021 30.15 850 25.1 -4.3 24.2 54 -12.3 9.9
02:40 1021 30.15 850 25.1 -4.1 24.6 53 -12.3 9.8
02:45 1021 30.15 850 25.1 -4.1 24.7 55 -11.9 10.5
02:50 1021 30.15 850 25.1 -4 24.8 54 -12 10.4
02:55 1021 30.15 850 25.1 -4 24.8 54 -11.9 10.5
03:00 1021 30.15 850 25.1 -4.3 24.2 56 -11.8 10.7
03:05 1020 30.12 850 25.1 -4.4 24.1 56 -11.8 10.7
03:10 1020 30.12 850 25.1 -4.6 23.8 57 -11.9 10.5
03:15 1020 30.12 850 25.1 -4.6 23.7 56 -12 10.4
03:20 1020 30.12 850 25.1 -4.7 23.6 56 -12.2 10
03:25 1020 30.12 850 25.1 -4.5 23.9 55 -12.3 9.9
03:30 1020 30.12 850 25.1 -4.5 23.9 55 -12.1 10.2
03:35 1020 30.12 849 25.07 -4.8 23.4 56 -12.2 10
03:40 1020 30.12 849 25.07 -4.9 23.2 55 -12.5 9.5
03:45 1020 30.12 849 25.07 -4.7 23.6 56 -12.2 10
03:50 1020 30.12 849 25.07 -4.7 23.5 55 -12.4 9.6
03:55 1020 30.12 849 25.07 -4.7 23.5 55 -12.5 9.5
04:00 1020 30.12 849 25.07 -4.7 23.6 55 -12.4 9.7
04:05 1020 30.12 849 25.07 -4.6 23.6 55 -12.5 9.6
04:10 1020 30.12 849 25.07 -4.6 23.7 55 -12.3 9.8
04:15 1020 30.12 849 25.07 -4.7 23.5 55 -12.3 9.8
04:20 1020 30.12 849 25.07 -4.8 23.4 56 -12.2 10
04:25 1020 30.12 849 25.07 -4.7 23.6 55 -12.5 9.5
04:30 1020 30.12 849 25.07 -4.6 23.7 55 -12.3 9.9
04:35 1020 30.12 849 25.07 -4.6 23.7 55 -12.4 9.7
04:40 1020 30.12 849 25.07 -4.5 23.9 55 -12.3 9.9
04:45 1020 30.12 849 25.07 -4.6 23.8 55 -12.2 10
04:50 1020 30.12 849 25.07 -4.6 23.7 56 -12.1 10.1
04:55 1019 30.09 849 25.07 -4.5 24 53 -12.6 9.4
05:00 1020 30.12 849 25.07 -4.2 24.5 52 -12.6 9.4
05:05 1020 30.12 849 25.07 -4.2 24.5 52 -12.6 9.2
05:10 1019 30.09 849 25.07 -4.1 24.6 52 -12.6 9.3
05:15 1019 30.09 849 25.07 -4.2 24.5 52 -12.6 9.3
05:20 1020 30.12 849 25.07 -4 24.7 50 -12.9 8.8
05:25 1019 30.09 849 25.07 -3.9 25 50 -12.8 9
05:30 1020 30.12 849 25.07 -4 24.9 51 -12.6 9.4
05:35 1020 30.12 849 25.07 -3.9 24.9 51 -12.8 9
05:40 1020 30.12 849 25.07 -4 24.7 52 -12.5 9.5
05:45 1019 30.09 849 25.07 -4 24.8 50 -12.8 8.9
05:50 1019 30.09 849 25.07 -3.8 25.2 49 -12.9 8.8
05:55 1019 30.09 849 25.07 -3.7 25.3 50 -12.8 9
06:00 1020 30.12 849 25.07 -3.7 25.3 48 -13.1 8.4
06:05 1019 30.09 849 25.07 -3.7 25.4 50 -12.6 9.3
06:10 1019 30.09 849 25.07 -3.9 25 51 -12.7 9.2
06:15 1019 30.09 849 25.07 -4 24.8 51 -12.7 9.2
06:20 1019 30.09 849 25.07 -3.9 25 49 -13.2 8.3
06:25 1019 30.09 848 25.04 -3.7 25.4 49 -13 8.6
06:30 1019 30.09 848 25.04 -3.6 25.4 49 -13 8.7
06:35 1019 30.09 848 25.04 -3.7 25.4 49 -12.9 8.8
06:40 1019 30.09 848 25.04 -3.7 25.4 49 -12.9 8.8
06:45 1019 30.09 848 25.04 -3.7 25.4 48 -13.2 8.3
06:50 1019 30.09 848 25.04 -3.6 25.5 51 -12.5 9.6
06:55 1019 30.09 848 25.04 -3.7 25.4 51 -12.4 9.8
07:00 1019 30.09 848 25.04 -3.7 25.3 52 -12.2 10
07:05 1019 30.09 848 25.04 -3.7 25.4 50 -12.6 9.3
07:10 1019 30.09 848 25.04 -3.5 25.7 50 -12.4 9.6
07:15 1019 30.09 848 25.04 -3.3 26.1 48 -12.7 9.2
07:20 1019 30.09 848 25.04 -3.1 26.4 46 -13.1 8.4
07:25 1019 30.09 848 25.04 -2.9 26.7 46 -12.9 8.7
07:30 1019 30.09 848 25.04 -2.8 26.9 46 -12.9 8.8
07:35 1019 30.09 848 25.04 -2.9 26.8 47 -12.6 9.3
07:40 1019 30.09 848 25.04 -2.9 26.8 50 -11.9 10.5
07:45 1019 30.09 848 25.04 -2.8 26.9 50 -11.9 10.6
07:50 1019 30.09 848 25.04 -2.8 27 49 -12 10.4
07:55 1019 30.09 848 25.04 -2.7 27.1 50 -11.7 11
08:00 1019 30.09 848 25.04 -2.5 27.5 49 -11.9 10.5
08:05 1019 30.09 848 25.04 -2.3 27.9 49 -11.7 10.9
08:10 1019 30.09 848 25.04 -2.4 27.7 48 -11.9 10.5
08:15 1019 30.09 848 25.04 -2.4 27.6 45 -12.7 9.1
08:20 1019 30.09 848 25.04 -2.1 28.2 43 -13.1 8.5
08:25 1019 30.09 848 25.04 -1.9 28.7 45 -12.4 9.7
08:30 1019 30.09 848 25.04 -1.6 29.1 46 -11.9 10.6
08:35 1019 30.09 848 25.04 -1.5 29.4 47 -11.5 11.3
08:40 1019 30.09 848 25.04 -1.3 29.7 46 -11.6 11.1
08:45 1019 30.09 848 25.04 -1.1 30 46 -11.3 11.7
08:50 1019 30.09 848 25.04 -0.8 30.6 45 -11.4 11.5
08:55 1019 30.09 848 25.04 -0.6 31 44 -11.3 11.7
09:00 1019 30.09 848 25.04 -0.4 31.2 44 -11.3 11.7
09:05 1019 30.09 848 25.04 -0.2 31.6 43 -11.2 11.9
09:10 1019 30.09 848 25.04 0.1 32.1 43 -11 12.1
09:15 1019 30.09 848 25.04 0.4 32.7 43 -10.8 12.6
09:20 1019 30.09 848 25.04 0.7 33.2 42 -10.8 12.5
09:25 1018 30.06 848 25.04 1.1 33.9 40 -11.1 12
09:30 1018 30.06 848 25.04 1.4 34.5 39 -11.1 12.1
09:35 1018 30.06 847 25.01 1.8 35.3 38 -11 12.2
09:40 1018 30.06 847 25.01 2.2 35.9 38 -10.9 12.4
09:45 1018 30.06 847 25.01 2.5 36.5 36 -11 12.2
09:50 1018 30.06 847 25.01 2.7 36.8 35 -11.3 11.6
09:55 1018 30.06 847 25.01 3 37.4 34 -11.2 11.8
10:00 1018 30.06 847 25.01 3.5 38.2 34 -11.1 11.9
10:05 1018 30.06 847 25.01 3.6 38.5 34 -11 12.2
10:10 1017 30.03 847 25.01 3.8 38.8 33 -10.9 12.3
10:15 1017 30.03 847 25.01 3.7 38.7 33 -11.1 12.1
10:20 1017 30.03 847 25.01 3.9 39.1 32 -11.4 11.4
10:25 1017 30.03 847 25.01 4.2 39.6 31 -11.4 11.4
10:30 1017 30.03 846 24.98 4.9 40.8 29 -11.6 11.2
10:35 1017 30.03 846 24.98 5.5 41.8 29 -11.3 11.6
10:40 1017 30.03 846 24.98 5.6 42 29 -11.2 11.9
10:45 1017 30.03 846 24.98 5.7 42.2 28 -11.3 11.6
10:50 1017 30.03 846 24.98 6.1 43.1 28 -11.2 11.9
10:55 1017 30.03 846 24.98 6.7 44.1 27 -11 12.2
11:00 1017 30.03 846 24.98 6.9 44.4 26 -11.3 11.6
11:05 1017 30.03 846 24.98 7.3 45.1 24 -11.8 10.8
11:10 1017 30.03 846 24.98 7.3 45.2 25 -11.7 11
11:15 1017 30.03 846 24.98 7.6 45.6 24 -12 10.4
11:20 1017 30.03 846 24.98 7.9 46.1 23 -12.2 10
11:25 1017 30.03 846 24.98 7.6 45.8 27 -10.2 13.6
11:30 1016 30 846 24.98 7.2 45 26 -11 12.1
11:35 1016 30 845 24.95 7.7 45.9 25 -11.2 11.9
11:40 1016 30 845 24.95 7.3 45.2 24 -11.8 10.8
11:45 1016 30 845 24.95 6.6 43.9 25 -11.9 10.6
11:50 1016 30 845 24.95 7.3 45.2 24 -12.2 10
11:55 1016 30 845 24.95 7.5 45.6 24 -12 10.4
12:00 1016 30 845 24.95 7.1 44.7 27 -10.6 13
12:05 1016 30 845 24.95 7.4 45.3 27 -10.5 13.2
12:10 1016 30 845 24.95 7.2 45 29 -9.9 14.2
12:15 1016 30 845 24.95 7 44.6 28 -10.2 13.7
12:20 1016 30 845 24.95 7 44.5 28 -10.1 13.8
12:25 1015 29.97 845 24.95 6.7 44 30 -9.8 14.4
12:30 1015 29.97 845 24.95 7.2 45 28 -10.1 13.8
12:35 1015 29.97 845 24.95 7.6 45.6 27 -10.3 13.5
12:40 1016 30 845 24.95 8.3 47 26 -10.3 13.4
12:45 1016 30 845 24.95 8.9 48 25 -10.1 13.9
12:50 1016 30 845 24.95 8.2 46.7 26 -10.3 13.5
12:55 1016 30 845 24.95 8.3 46.9 25 -10.5 13.1
13:00 1016 30 845 24.95 8.2 46.7 25 -10.6 13
13:05 1016 30 845 24.95 8.2 46.7 25 -10.6 12.8
13:10 1015 29.97 845 24.95 8.1 46.7 26 -10.4 13.3
13:15 1016 30 845 24.95 8.3 46.9 25 -10.4 13.2
13:20 1016 30 845 24.95 8.1 46.6 25 -10.6 12.9
13:25 1016 30 845 24.95 7.9 46.2 27 -10.1 13.8
13:30 1015 29.97 845 24.95 7.9 46.2 26 -10.5 13.1
13:35 1015 29.97 845 24.95 7.8 46 26 -10.7 12.7
13:40 1015 29.97 844 24.92 8.4 47 25 -10.6 12.9
13:45 1015 29.97 845 24.95 8.3 46.9 25 -10.4 13.3
13:50 1015 29.97 845 24.95 8.3 47 26 -10 14.1
13:55 1015 29.97 844 24.92 8.2 46.7 26 -10 14.1
14:00 1015 29.97 844 24.92 7.8 46.1 28 -9.7 14.5
14:05 1015 29.97 844 24.92 7.5 45.5 27 -10.4 13.3
14:10 1015 29.97 844 24.92 6.8 44.2 27 -10.8 12.6
14:15 1015 29.97 844 24.92 6.7 44.1 28 -10.5 13.1
14:20 1015 29.97 844 24.92 7.2 44.9 26 -11.1 12.1
14:25 1015 29.97 844 24.92 7.5 45.5 27 -10.5 13.1
14:30 1015 29.97 844 24.92 7.1 44.8 28 -10.4 13.3
14:35 1015 29.97 844 24.92 7 44.5 27 -10.6 12.9
14:40 1015 29.97 844 24.92 6.8 44.3 26 -11.3 11.6
14:45 1015 29.97 844 24.92 6.8 44.3 27 -10.9 12.5
14:50 1015 29.97 844 24.92 7 44.6 27 -10.7 12.8
14:55 1014 29.94 844 24.92 7.1 44.8 28 -10.4 13.2
15:00 1014 29.94 844 24.92 7.1 44.8 27 -10.5 13.1
15:05 1014 29.94 844 24.92 6.8 44.2 27 -11 12.3
15:10 1014 29.94 843 24.89 6.9 44.4 28 -10.6 12.9
15:15 1014 29.94 843 24.89 7 44.6 30 -9.4 15.1
15:20 1014 29.94 843 24.89 6.8 44.3 33 -8.4 16.9
15:25 1014 29.94 843 24.89 6.8 44.2 35 -7.5 18.4
15:30 1014 29.94 843 24.89 6.7 44.1 36 -7.2 19
15:35 1014 29.94 843 24.89 6.8 44.2 37 -7 19.3
15:40 1014 29.94 843 24.89 6.7 44 38 -6.8 19.8
15:45 1014 29.94 843 24.89 6.6 43.8 38 -6.6 20
15:50 1014 29.94 843 24.89 6.3 43.3 39 -6.6 20.2
15:55 1014 29.94 843 24.89 6.1 43 40 -6.5 20.4
16:00 1014 29.94 843 24.89 5.9 42.7 41 -6.4 20.5
16:05 1014 29.94 843 24.89 5.8 42.4 41 -6.4 20.5
16:10 1014 29.94 843 24.89 5.7 42.3 42 -6.2 20.8
16:15 1014 29.94 843 24.89 5.6 42.1 42 -6.2 20.9
16:20 1014 29.94 843 24.89 5.3 41.6 42 -6.4 20.4
16:25 1014 29.94 843 24.89 5.2 41.3 42 -6.6 20.1
16:30 1014 29.94 843 24.89 5 41.1 43 -6.6 20.1
16:35 1014 29.94 843 24.89 4.9 40.8 43 -6.7 20
16:40 1013 29.91 843 24.89 4.8 40.6 43 -6.7 19.9
16:45 1013 29.91 842 24.86 4.7 40.4 43 -6.7 19.9
16:50 1013 29.91 842 24.86 4.5 40.1 44 -6.7 19.9
16:55 1013 29.91 842 24.86 4.3 39.8 44 -6.9 19.7
17:00 1013 29.91 842 24.86 4.2 39.5 45 -6.8 19.7
17:05 1013 29.91 842 24.86 4.1 39.4 44 -7 19.4
17:10 1013 29.91 842 24.86 4.1 39.4 45 -6.9 19.7
17:15 1013 29.91 842 24.86 4 39.2 45 -6.8 19.8
17:20 1013 29.91 842 24.86 3.9 39.1 45 -6.9 19.6
17:25 1013 29.91 842 24.86 3.9 39 45 -6.9 19.6
17:30 1012 29.88 842 24.86 4 39.1 45 -6.9 19.5
17:35 1012 29.88 842 24.86 4.1 39.3 45 -6.9 19.6
17:40 1012 29.88 842 24.86 4.1 39.3 45 -6.9 19.5
17:45 1012 29.88 841 24.83 4 39.2 45 -6.9 19.5
17:50 1012 29.88 841 24.83 3.9 38.9 45 -6.9 19.6
17:55 1012 29.88 841 24.83 3.8 38.8 45 -6.9 19.5
18:00 1012 29.88 841 24.83 3.8 38.8 46 -6.9 19.7
18:05 1012 29.88 841 24.83 3.9 39 45 -6.9 19.6
18:10 1012 29.88 841 24.83 3.9 39.1 46 -6.7 19.9
18:15 1012 29.88 841 24.83 3.9 39.1 46 -6.7 19.9
18:20 1012 29.88 841 24.83 4.1 39.3 46 -6.5 20.2
18:25 1012 29.88 841 24.83 4.1 39.3 46 -6.6 20.1
18:30 1012 29.88 841 24.83 4.1 39.3 46 -6.6 20.1
18:35 1012 29.88 841 24.83 4.1 39.4 46 -6.5 20.3
18:40 1012 29.88 841 24.83 4 39.3 48 -6.1 21.1
18:45 1012 29.88 841 24.83 3.6 38.5 48 -6.4 20.5
18:50 1012 29.88 841 24.83 3.4 38 49 -6.3 20.6
18:55 1012 29.88 841 24.83 3.2 37.7 49 -6.6 20.2
19:00 1012 29.88 841 24.83 3.5 38.3 48 -6.5 20.3
19:05 1011 29.85 841 24.83 3.5 38.4 48 -6.6 20.2
19:10 1011 29.85 840 24.81 3.8 38.8 48 -6.1 21
19:15 1011 29.85 840 24.81 3.6 38.4 45 -7.2 19.1
19:20 1011 29.85 840 24.81 3.8 38.8 49 -6 21.2
19:25 1011 29.85 840 24.81 3.6 38.5 46 -7 19.4
19:30 1011 29.85 840 24.81 4.4 39.8 42 -7.5 18.5
19:35 1011 29.85 840 24.81 5.7 42.3 37 -7.8 18
19:40 1011 29.85 840 24.81 5.9 42.6 40 -6.7 20
19:45 1011 29.85 840 24.81 5.4 41.6 38 -7.7 18.1
19:50 1010 29.83 840 24.81 6 42.7 37 -7.7 18.1
19:55 1010 29.83 840 24.81 6.1 43 37 -7.4 18.7
20:00 1010 29.83 840 24.81 5.8 42.5 40 -6.7 20
20:05 1011 29.85 840 24.81 4.6 40.3 43 -6.8 19.7
20:10 1010 29.83 840 24.81 4.3 39.7 45 -6.7 19.9
20:15 1010 29.83 839 24.78 4 39.2 45 -6.9 19.5
20:20 1010 29.83 839 24.78 3.9 39.1 45 -7 19.4
20:25 1010 29.83 839 24.78 3.8 38.9 46 -6.9 19.7
20:30 1010 29.83 839 24.78 3.9 39 45 -7.1 19.3
20:35 1010 29.83 839 24.78 4 39.1 45 -6.8 19.8
20:40 1010 29.83 839 24.78 4 39.2 45 -7 19.4
20:45 1010 29.83 839 24.78 4.1 39.4 43 -7.2 19
20:50 1010 29.83 839 24.78 5.2 41.3 35 -9 15.7
20:55 1010 29.83 839 24.78 6.4 43.5 33 -8.8 16.2
21:00 1010 29.83 839 24.78 6.4 43.5 38 -7 19.4
21:05 1010 29.83 839 24.78 5.3 41.6 41 -6.9 19.6
21:10 1009 29.8 839 24.78 4.7 40.5 42 -7.1 19.3
21:15 1009 29.8 839 24.78 4.5 40.2 41 -7.7 18.1
21:20 1009 29.8 839 24.78 5 41.1 36 -9 15.9
21:25 1009 29.8 839 24.78 6.7 44 33 -8.4 16.8
21:30 1009 29.8 839 24.78 7.6 45.6 32 -8.2 17.2
21:35 1009 29.8 839 24.78 7.8 46 29 -9.1 15.7
21:40 1009 29.8 839 24.78 8.5 47.3 28 -8.8 16.1
21:45 1010 29.83 839 24.78 8.4 47.1 28 -9 15.8
21:50 1010 29.83 839 24.78 8.4 47.1 28 -9 15.8
21:55 1009 29.8 839 24.78 8.3 46.9 29 -8.9 16
22:00 1009 29.8 839 24.78 8.2 46.7 29 -8.7 16.3
22:05 1009 29.8 838 24.75 7.9 46.2 31 -8 17.6
22:10 1009 29.8 838 24.75 7.1 44.8 34 -7.7 18.1
22:15 1009 29.8 838 24.75 6.4 43.5 35 -8 17.6
22:20 1009 29.8 838 24.75 6.4 43.5 34 -8.5 16.7
22:25 1009 29.8 838 24.75 7 44.6 31 -9.2 15.4
22:30 1009 29.8 838 24.75 8.2 46.8 28 -9.3 15.2
22:35 1009 29.8 838 24.75 8.6 47.5 28 -9 15.8
22:40 1009 29.8 838 24.75 8.5 47.3 28 -9 15.7
22:45 1009 29.8 838 24.75 8.5 47.2 28 -8.9 16
22:50 1009 29.8 838 24.75 8.7 47.6 27 -9.4 15.1
22:55 1009 29.8 838 24.75 8.7 47.7 27 -9.3 15.2
23:00 1009 29.8 838 24.75 8.6 47.5 27 -9.1 15.5
23:05 1009 29.8 838 24.75 8.5 47.3 27 -9.3 15.3
23:10 1009 29.8 838 24.75 8.6 47.6 28 -9 15.9
23:15 1009 29.8 838 24.75 8.6 47.4 29 -8.4 16.9
23:20 1009 29.8 838 24.75 8.7 47.7 27 -9.3 15.2
23:25 1009 29.8 838 24.75 9 48.1 27 -9.1 15.6
23:30 1009 29.8 838 24.75 9 48.2 26 -9.4 15
23:35 1009 29.8 838 24.75 9.1 48.4 26 -9.2 15.5
23:40 1009 29.8 838 24.75 8.9 48.1 27 -9 15.8
23:45 1009 29.8 838 24.75 8.7 47.6 28 -9 15.8
23:50 1009 29.8 838 24.75 8.4 47.2 29 -8.8 16.2
23:55 1009 29.8 838 24.75 8.3 46.9 29 -8.9 16.1
24:00 1009 29.8 838 24.75 8.2 46.8 29 -8.8 16.2